Monday, June 25, 2018, 12:08 AM EDT
Back to Local

KLWM, Lawrence Municipal Airport

Location: North Andover, MA, United States Lat: 42.717
Local Time: 12:08 AM EDT ( 4:08 GMT) Lon: -71.133
Time Zone: US/Eastern Elev: 147 ft

Show me the last for .
Show Decoded

2018-06-24 23:54 METAR KLWM 250354Z AUTO 05006KT 4SM -RA BR OVC003 20/18 A2980 RMK AO2 RAB40
                 SLP091 P0004 T02000178 =
2018-06-24 22:54 METAR KLWM 250254Z AUTO 07005KT 5SM BR OVC002 21/19 A2980 RMK AO2 SLP090 60001
                 T02110189 57007 =
2018-06-24 22:25 METAR KLWM 250225Z AUTO 03005KT 5SM BR BKN003 OVC033 21/19 A2981 RMK AO2
                 T02110189 =
2018-06-24 21:54 METAR KLWM 250154Z 00000KT 8SM FEW004 FEW013 OVC037 22/19 A2982 RMK AO2 SLP097
                 T02170189 =
2018-06-24 21:44 METAR KLWM 250144Z 00000KT 8SM FEW008 FEW025 OVC038 21/19 A2982 RMK AO2
                 T02110189 =
2018-06-24 21:01 METAR KLWM 250101Z 09003KT 10SM SCT042 BKN060 OVC075 22/19 A2980 RMK AO2
                 T02170189 =
2018-06-24 20:54 METAR KLWM 250054Z 00000KT 9SM BKN027 BKN035 OVC050 22/19 A2980 RMK AO2 RAE34
                 SLP091 P0001 T02170189 =
2018-06-24 19:54 METAR KLWM 242354Z 00000KT 4SM -RA BKN027 BKN038 OVC050 22/19 A2982 RMK AO2
                 SLP097 P0003 60019 T02170189 10272 20211 53009 =
2018-06-24 18:54 METAR KLWM 242254Z 09004KT 10SM -RA SCT040 BKN055 22/18 A2980 RMK AO2 SLP090
                 P0010 T02170183 =
2018-06-24 17:54 METAR KLWM 242154Z 13004KT 3SM -RA FEW040 BKN065 OVC090 22/18 A2980 RMK AO2
                 RAB2056E11B29 SLP091 P0002 T02220183 =
2018-06-24 16:54 METAR KLWM 242054Z VRB03KT 10SM BKN043 BKN050 OVC070 24/19 A2979 RMK AO2
                 RAB09E39 SLP088 P0004 60004 T02390194 55002 =
2018-06-24 16:38 METAR KLWM 242038Z 13004KT 4SM -RA SCT026 OVC043 24/19 A2979 RMK AO2 RAB09 P0004
                 T02390194 =
2018-06-24 16:22 METAR KLWM 242022Z 13003KT 4SM -RA SCT024 BKN029 OVC037 24/19 A2980 RMK AO2
                 RAB09 P0004 T02440194 =
2018-06-24 16:19 METAR KLWM 242019Z 17004KT 1 3/4SM +RA SCT026 OVC035 25/19 A2980 RMK AO2 VIS
                 3/4V5 RAB09 P0004 T02500194 =
2018-06-24 15:54 METAR KLWM 241954Z 00000KT 10SM BKN041 OVC049 27/18 A2979 RMK AO2 SLP086
                 T02670178 =
2018-06-24 14:54 METAR KLWM 241854Z VRB05KT 10SM BKN033 BKN043 BKN050 27/18 A2979 RMK AO2 SLP088
                 T02670178 =
2018-06-24 13:54 METAR KLWM 241754Z 00000KT 10SM OVC031 26/18 A2980 RMK AO2 SLP090 T02560178
                 10256 20167 58018 =
2018-06-24 13:01 METAR KLWM 241701Z 20006KT 10SM BKN024 BKN032 24/17 A2982 RMK AO2 T02390167 =
2018-06-24 12:54 METAR KLWM 241654Z VRB06KT 10SM SCT024 BKN032 BKN060 24/17 A2982 RMK AO2 SLP099
                 T02440167 =
2018-06-24 11:54 METAR KLWM 241554Z 29003KT 10SM BKN055 23/17 A2984 RMK AO2 SLP102 T02280167 =
2018-06-24 11:29 METAR KLWM 241529Z 24005KT 10SM SCT013 OVC055 22/16 A2984 RMK AO2 T02170161 =
2018-06-24 10:54 METAR KLWM 241454Z 21005KT 10SM OVC012 20/15 A2985 RMK AO2 SLP108 T02000150
                 53007 =
2018-06-24 09:54 METAR KLWM 241354Z VRB05KT 10SM OVC010 19/14 A2984 RMK AO2 SLP104 T01890144 =
2018-06-24 09:45 METAR KLWM 241345Z 22005KT 10SM OVC010 19/14 A2984 RMK AO2 T01890144 =
2018-06-24 08:54 METAR KLWM 241254Z 21005KT 10SM OVC008 18/14 A2984 RMK AO2 SLP104 T01780139 =
2018-06-24 07:54 METAR KLWM 241154Z 20005KT 10SM OVC008 17/13 A2983 RMK AO2 SLP101 70006
                 T01670128 10172 20144 51005 =
2018-06-24 07:20 METAR KLWM 241120Z 22004KT 10SM OVC009 17/12 A2983 RMK AO2 T01670122 =
2018-06-24 06:54 METAR KLWM 241054Z 18004KT 10SM OVC011 16/12 A2982 RMK AO2 SLP098 T01610117 =
2018-06-24 05:54 METAR KLWM 240954Z AUTO 20004KT 10SM OVC013 16/11 A2983 RMK AO2 SLP099 T01560111
                 =
2018-06-24 05:41 METAR KLWM 240941Z AUTO 21004KT 10SM OVC014 16/11 A2983 RMK AO2 T01560111 =
2018-06-24 04:54 METAR KLWM 240854Z AUTO 00000KT 10SM OVC018 15/11 A2981 RMK AO2 SLP095 T01500111
                 56009 =
2018-06-24 03:54 METAR KLWM 240754Z AUTO 00000KT 10SM OVC016 15/11 A2982 RMK AO2 SLP098 T01500111
                 =
2018-06-24 02:54 METAR KLWM 240654Z AUTO 33003KT 10SM OVC018 15/11 A2982 RMK AO2 SLP097 T01500106
                 =
2018-06-24 01:54 METAR KLWM 240554Z AUTO 00000KT 10SM OVC021 15/11 A2984 RMK AO2 SLP104 60000
                 T01500111 10161 20144 56010 =
2018-06-24 00:54 METAR KLWM 240454Z AUTO 00000KT 10SM OVC015 14/11 A2986 RMK AO2 SLP110 T01440106
                 402000144 =

Support USWX by starting your Amazon purchase here.